createdAt,value
2022-12-23T00:01:03.281Z,118.83
2022-12-23T00:02:06.491Z,107.63
2022-12-23T00:03:09.564Z,112.72
2022-12-23T00:04:12.517Z,106.40
2022-12-23T00:05:15.435Z,111.40
2022-12-23T00:06:20.290Z,108.82
2022-12-23T00:07:23.456Z,116.25
2022-12-23T00:08:28.151Z,110.60
2022-12-23T00:09:31.874Z,114.18
2022-12-23T00:10:37.959Z,114.65
2022-12-23T00:12:00.672Z,99.93
2022-12-23T00:13:22.651Z,104.27
2022-12-23T00:14:44.303Z,105.10
2022-12-23T00:15:47.099Z,100.72
2022-12-23T00:16:51.265Z,110.68
2022-12-23T00:17:54.290Z,101.50
2022-12-23T00:18:58.701Z,93.62
2022-12-23T00:20:01.970Z,103.15
2022-12-23T00:21:09.166Z,107.20
2022-12-23T00:22:12.219Z,102.32
2022-12-23T00:23:16.570Z,102.17
2022-12-23T00:24:19.698Z,140.88
2022-12-23T00:25:40.381Z,194.20
2022-12-23T00:26:43.506Z,258.58
2022-12-23T00:28:01.493Z,176.48
2022-12-23T00:29:04.420Z,122.10
2022-12-23T00:30:09.764Z,136.07
2022-12-23T00:31:15.156Z,105.05
2022-12-23T00:32:17.967Z,116.88
2022-12-23T00:33:23.387Z,197.80
2022-12-23T00:34:26.295Z,114.63
2022-12-23T00:35:32.542Z,101.40
2022-12-23T00:36:37.553Z,111.47
2022-12-23T00:37:40.649Z,102.43
2022-12-23T00:39:04.784Z,106.25
2022-12-23T00:40:31.064Z,140.68
2022-12-23T00:41:52.781Z,142.98
2022-12-23T00:42:55.794Z,104.40
2022-12-23T00:43:58.728Z,131.20
2022-12-23T00:45:15.994Z,108.87
2022-12-23T00:46:19.133Z,93.60
2022-12-23T00:47:41.331Z,90.53
2022-12-23T00:49:07.611Z,95.85
2022-12-23T00:50:10.987Z,94.72
2022-12-23T00:51:13.945Z,99.60
2022-12-23T00:52:16.818Z,122.37
2022-12-23T00:53:20.743Z,130.30
2022-12-23T00:54:23.567Z,179.90
2022-12-23T00:55:26.820Z,124.68
2022-12-23T00:56:29.607Z,205.98
2022-12-23T00:57:32.397Z,138.03
2022-12-23T00:58:37.989Z,137.27
2022-12-23T00:59:40.714Z,104.75
2022-12-23T01:01:02.997Z,97.22
2022-12-23T01:02:24.952Z,92.03
2022-12-23T01:03:49.023Z,92.78
2022-12-23T01:05:10.868Z,92.65
2022-12-23T01:06:14.354Z,95.30
2022-12-23T01:07:17.066Z,90.30
2022-12-23T01:08:19.932Z,93.70
2022-12-23T01:09:22.719Z,103.80
2022-12-23T01:10:26.428Z,86.57
2022-12-23T01:11:29.333Z,95.95
2022-12-23T01:12:32.352Z,93.25
2022-12-23T01:13:36.036Z,92.20
2022-12-23T01:14:39.194Z,97.43
2022-12-23T01:15:42.294Z,99.40
2022-12-23T01:16:45.468Z,92.50
2022-12-23T01:17:48.374Z,94.25
2022-12-23T01:18:52.031Z,92.62
2022-12-23T01:19:54.821Z,92.20
2022-12-23T01:21:03.107Z,82.65
2022-12-23T01:22:06.004Z,87.57
2022-12-23T01:23:08.873Z,87.62
2022-12-23T01:24:12.023Z,114.05
2022-12-23T01:25:14.947Z,92.40
2022-12-23T01:26:18.053Z,92.30
2022-12-23T01:27:20.882Z,89.07
2022-12-23T01:28:29.960Z,81.28
2022-12-23T01:29:32.890Z,87.03
2022-12-23T01:30:37.135Z,89.07
2022-12-23T01:31:40.370Z,89.07
2022-12-23T01:32:43.191Z,83.05
2022-12-23T01:33:46.515Z,84.45
2022-12-23T01:34:49.394Z,84.57
2022-12-23T01:35:52.304Z,90.35
2022-12-23T01:36:55.411Z,89.22
2022-12-23T01:37:58.500Z,78.18
2022-12-23T01:39:01.344Z,80.20
2022-12-23T01:40:04.533Z,82.78
2022-12-23T01:41:07.809Z,86.33
2022-12-23T01:42:33.025Z,78.45
2022-12-23T01:43:49.306Z,82.43
2022-12-23T01:45:01.949Z,86.72
2022-12-23T01:46:06.595Z,84.50
2022-12-23T01:47:13.284Z,84.93
2022-12-23T01:48:27.394Z,88.95
2022-12-23T01:49:30.530Z,93.32
2022-12-23T01:51:03.176Z,91.97
2022-12-23T01:52:06.108Z,117.47
2022-12-23T01:53:14.832Z,91.43
2022-12-23T01:54:17.945Z,91.32
2022-12-23T01:55:25.538Z,87.88
2022-12-23T01:56:34.621Z,85.90
2022-12-23T01:57:40.952Z,82.90
2022-12-23T01:58:59.394Z,84.82
2022-12-23T02:00:33.908Z,81.22
2022-12-23T02:01:55.962Z,84.78
2022-12-23T02:03:17.709Z,78.25
2022-12-23T02:04:23.645Z,90.10
2022-12-23T02:05:26.813Z,87.63
2022-12-23T02:06:52.900Z,84.07
2022-12-23T02:08:14.915Z,78.47
2022-12-23T02:09:32.951Z,78.93
2022-12-23T02:10:57.380Z,88.57
2022-12-23T02:12:27.626Z,83.72
2022-12-23T02:14:20.812Z,81.20
2022-12-23T02:15:52.966Z,86.53
2022-12-23T02:17:09.405Z,80.25
2022-12-23T02:18:33.948Z,79.03
2022-12-23T02:19:52.201Z,88.77
2022-12-23T02:21:16.198Z,78.20
2022-12-23T02:22:35.269Z,79.03
2022-12-23T02:23:44.066Z,84.93
2022-12-23T02:25:02.201Z,91.05
2022-12-23T02:26:29.558Z,88.40
2022-12-23T02:27:40.416Z,100.07
2022-12-23T02:28:49.871Z,96.37
2022-12-23T02:29:52.956Z,107.80
2022-12-23T02:31:10.649Z,102.25
2022-12-23T02:32:59.287Z,112.63
2022-12-23T02:34:19.097Z,129.15
2022-12-23T02:35:46.715Z,125.43
2022-12-23T02:36:59.890Z,122.18
2022-12-23T02:38:09.682Z,121.13
2022-12-23T02:39:40.258Z,115.68
2022-12-23T02:40:43.621Z,108.72
2022-12-23T02:41:57.043Z,109.05
2022-12-23T02:43:25.611Z,103.62
2022-12-23T02:44:45.154Z,94.82
2022-12-23T02:46:01.870Z,109.57
2022-12-23T02:47:11.572Z,102.70
2022-12-23T02:48:32.077Z,108.35
2022-12-23T02:49:40.511Z,105.57
2022-12-23T02:50:46.556Z,105.00
2022-12-23T02:51:54.306Z,107.00
2022-12-23T02:53:01.793Z,103.22
2022-12-23T02:54:08.478Z,101.40
2022-12-23T02:55:19.432Z,101.45
2022-12-23T02:56:26.977Z,93.90
2022-12-23T02:57:35.863Z,91.80
2022-12-23T02:58:46.460Z,90.20
2022-12-23T02:59:52.471Z,91.45
2022-12-23T03:00:57.401Z,89.03
2022-12-23T03:02:01.614Z,86.68
2022-12-23T03:03:05.232Z,94.87
2022-12-23T03:04:09.003Z,96.60
2022-12-23T03:10:56.744Z,84.32
2022-12-23T03:12:09.999Z,88.30
2022-12-23T03:13:22.825Z,87.35
2022-12-23T03:14:50.330Z,89.95
2022-12-23T03:16:21.161Z,104.63
2022-12-23T03:17:47.610Z,124.72
2022-12-23T03:19:13.852Z,102.82
2022-12-23T03:20:44.001Z,91.93
2022-12-23T03:21:50.691Z,89.07
2022-12-23T03:23:03.881Z,89.47
2022-12-23T03:24:06.664Z,103.82
2022-12-23T03:25:17.878Z,105.87
2022-12-23T03:27:08.460Z,102.97
2022-12-23T03:28:21.526Z,104.97
2022-12-23T03:29:37.268Z,93.80
2022-12-23T03:30:44.618Z,91.87
2022-12-23T03:31:48.194Z,87.07
2022-12-23T03:32:57.322Z,88.37
2022-12-23T03:34:08.553Z,99.13
2022-12-23T03:35:16.757Z,94.63
2022-12-23T03:36:24.882Z,83.62
2022-12-23T03:37:30.433Z,93.93
2022-12-23T03:38:36.525Z,89.15
2022-12-23T03:39:48.325Z,82.90
2022-12-23T03:40:56.788Z,91.43
2022-12-23T03:42:07.835Z,90.87
2022-12-23T03:43:52.964Z,102.87
2022-12-23T03:45:36.515Z,79.60
2022-12-23T03:46:38.402Z,76.20
2022-12-23T03:48:15.407Z,71.23
2022-12-23T03:49:41.881Z,82.43
2022-12-23T03:50:48.724Z,82.30
2022-12-23T03:52:01.147Z,83.28
2022-12-23T03:53:03.899Z,88.57
2022-12-23T03:54:19.099Z,77.47
2022-12-23T03:55:27.240Z,86.22
2022-12-23T03:56:44.565Z,93.68
2022-12-23T03:57:58.483Z,89.70
2022-12-23T03:59:19.976Z,85.30
2022-12-23T04:00:22.969Z,81.23
2022-12-23T04:01:39.494Z,89.53
2022-12-23T04:02:56.052Z,82.03
2022-12-23T04:04:07.101Z,82.25
2022-12-23T04:05:25.138Z,76.93
2022-12-23T04:06:35.834Z,100.43
2022-12-23T04:07:43.543Z,78.95
2022-12-23T04:08:49.111Z,86.22
2022-12-23T04:09:53.724Z,79.82
2022-12-23T04:10:57.807Z,72.55
2022-12-23T04:12:01.130Z,84.67
2022-12-23T04:13:04.038Z,79.47
2022-12-23T04:14:07.914Z,79.80
2022-12-23T04:15:13.232Z,82.32
2022-12-23T04:16:16.975Z,80.62
2022-12-23T04:17:21.835Z,83.07
2022-12-23T04:18:25.352Z,82.70
2022-12-23T04:19:28.298Z,91.57
2022-12-23T04:20:31.089Z,86.25
2022-12-23T04:21:33.834Z,108.50
2022-12-23T04:22:37.110Z,92.33
2022-12-23T04:23:40.576Z,86.12
2022-12-23T04:24:44.247Z,87.15
2022-12-23T04:25:47.513Z,88.20
2022-12-23T04:26:50.848Z,92.22
2022-12-23T04:27:54.243Z,86.60
2022-12-23T04:28:57.023Z,86.65
2022-12-23T04:30:00.231Z,88.80
2022-12-23T04:31:03.042Z,91.80
2022-12-23T04:32:06.662Z,90.62
2022-12-23T04:33:12.977Z,84.87
2022-12-23T04:34:16.550Z,98.57
2022-12-23T04:35:20.004Z,92.35
2022-12-23T04:36:23.645Z,100.57
2022-12-23T04:37:27.201Z,91.43
2022-12-23T04:38:33.232Z,98.97
2022-12-23T04:39:36.643Z,92.37
2022-12-23T04:40:40.055Z,89.68
2022-12-23T04:41:43.051Z,89.97
2022-12-23T04:42:46.391Z,85.22
2022-12-23T04:43:53.020Z,80.33
2022-12-23T04:44:56.715Z,86.60
2022-12-23T04:45:59.442Z,90.75
2022-12-23T04:47:02.616Z,102.32
2022-12-23T04:48:06.164Z,106.70
2022-12-23T04:49:10.153Z,95.57
2022-12-23T04:50:17.019Z,95.22
2022-12-23T04:51:19.826Z,98.25
2022-12-23T04:52:23.560Z,105.75
2022-12-23T04:53:26.554Z,94.05
2022-12-23T04:54:29.612Z,100.17
2022-12-23T04:55:32.437Z,93.77
2022-12-23T04:56:35.292Z,95.53
2022-12-23T04:57:38.775Z,88.57
2022-12-23T04:58:42.923Z,97.90
2022-12-23T04:59:46.554Z,99.65
2022-12-23T05:00:49.710Z,107.18
2022-12-23T05:01:53.126Z,103.65
2022-12-23T05:02:56.406Z,101.40
2022-12-23T05:03:59.283Z,104.03
2022-12-23T05:05:02.466Z,108.73
2022-12-23T05:06:06.432Z,94.87
2022-12-23T05:07:09.633Z,95.30
2022-12-23T05:08:12.401Z,98.05
2022-12-23T05:09:15.341Z,97.18
2022-12-23T05:10:18.535Z,100.68
2022-12-23T05:11:21.279Z,98.28
2022-12-23T05:12:23.985Z,94.37
2022-12-23T05:13:28.339Z,99.18
2022-12-23T05:14:31.095Z,97.85
2022-12-23T05:15:34.156Z,103.33
2022-12-23T05:16:37.189Z,111.50
2022-12-23T05:17:39.998Z,113.82
2022-12-23T05:18:44.181Z,117.80
2022-12-23T05:19:46.905Z,117.45
2022-12-23T05:20:50.194Z,114.12
2022-12-23T05:21:53.008Z,110.15
2022-12-23T05:22:55.771Z,118.87
2022-12-23T05:23:58.731Z,112.25
2022-12-23T05:25:01.557Z,110.12
2022-12-23T05:26:04.858Z,113.20
2022-12-23T05:27:07.694Z,126.20
2022-12-23T05:28:11.123Z,121.85
2022-12-23T05:29:15.829Z,117.22
2022-12-23T05:30:18.684Z,119.57
2022-12-23T05:31:22.253Z,117.53
2022-12-23T05:32:25.201Z,158.48
2022-12-23T05:33:28.345Z,151.37
2022-12-23T05:34:31.125Z,156.95
2022-12-23T05:35:33.839Z,173.23
2022-12-23T05:36:36.933Z,188.07
2022-12-23T05:37:39.706Z,207.48
2022-12-23T05:38:42.450Z,205.85
2022-12-23T05:39:45.263Z,125.82
2022-12-23T05:40:48.807Z,105.97
2022-12-23T05:41:51.883Z,92.25
2022-12-23T05:42:54.570Z,100.45
2022-12-23T05:43:57.303Z,108.75
2022-12-23T05:44:59.997Z,112.90
2022-12-23T05:46:02.885Z,140.68
2022-12-23T05:47:06.132Z,127.23
2022-12-23T05:48:10.274Z,124.67
2022-12-23T05:49:13.690Z,130.60
2022-12-23T05:50:16.527Z,120.95
2022-12-23T05:51:19.415Z,110.47
2022-12-23T05:52:22.454Z,108.10
2022-12-23T05:53:25.809Z,120.05
2022-12-23T05:54:28.538Z,104.68
2022-12-23T05:55:31.281Z,109.75
2022-12-23T05:56:34.089Z,197.52
2022-12-23T05:57:37.406Z,162.53
2022-12-23T05:58:41.087Z,150.67
2022-12-23T05:59:44.191Z,181.27
2022-12-23T06:00:47.077Z,178.12
2022-12-23T06:01:50.329Z,146.57
2022-12-23T06:02:54.081Z,168.02
2022-12-23T06:03:57.372Z,191.10
2022-12-23T06:05:00.497Z,174.93
2022-12-23T06:06:03.297Z,158.37
2022-12-23T06:07:07.675Z,197.65
2022-12-23T06:08:10.536Z,237.93
2022-12-23T06:09:13.410Z,199.77
2022-12-23T06:10:16.743Z,221.90
2022-12-23T06:11:19.524Z,178.82
2022-12-23T06:12:22.564Z,161.80
2022-12-23T06:13:25.799Z,144.50
2022-12-23T06:14:29.524Z,190.50
2022-12-23T06:15:32.447Z,231.00
2022-12-23T06:16:35.214Z,177.25
2022-12-23T06:17:39.044Z,176.12
2022-12-23T06:18:42.565Z,215.07
2022-12-23T06:19:47.416Z,249.30
2022-12-23T06:20:50.160Z,174.70
2022-12-23T06:21:52.941Z,178.43
2022-12-23T06:22:56.067Z,191.85
2022-12-23T06:23:58.825Z,176.18
2022-12-23T06:25:01.611Z,182.35
2022-12-23T06:26:04.749Z,182.23
2022-12-23T06:27:07.907Z,228.65
2022-12-23T06:28:14.368Z,165.18
2022-12-23T06:29:17.194Z,157.90
2022-12-23T06:30:20.369Z,139.02
2022-12-23T06:31:23.325Z,139.02
2022-12-23T06:32:26.185Z,153.75
2022-12-23T06:33:29.258Z,189.82
2022-12-23T06:34:33.720Z,171.48
2022-12-23T06:35:36.401Z,139.23
2022-12-23T06:36:39.254Z,146.73
2022-12-23T06:37:42.506Z,152.48
2022-12-23T06:38:48.274Z,155.63
2022-12-23T06:39:51.107Z,134.30
2022-12-23T06:40:53.881Z,153.77
2022-12-23T06:41:57.016Z,149.60
2022-12-23T06:42:59.745Z,160.80
2022-12-23T06:44:02.849Z,172.48
2022-12-23T06:45:06.058Z,131.90
2022-12-23T06:46:08.893Z,141.93
2022-12-23T06:47:11.779Z,113.18
2022-12-23T06:48:15.122Z,145.65
2022-12-23T06:49:18.204Z,121.78
2022-12-23T06:50:21.170Z,133.00
2022-12-23T06:51:24.953Z,138.65
2022-12-23T06:52:27.838Z,150.57
2022-12-23T06:53:30.591Z,194.25
2022-12-23T06:54:33.777Z,176.57
2022-12-23T06:55:36.573Z,189.70
2022-12-23T06:56:40.142Z,287.10
2022-12-23T06:57:43.054Z,229.98
2022-12-23T06:58:46.876Z,227.38
2022-12-23T06:59:49.900Z,208.75
2022-12-23T07:00:52.752Z,167.13
2022-12-23T07:01:55.753Z,173.37
2022-12-23T07:02:58.730Z,168.30
2022-12-23T07:04:02.129Z,181.75
2022-12-23T07:05:06.328Z,196.02
2022-12-23T07:06:09.207Z,178.75
2022-12-23T07:07:12.189Z,179.12
2022-12-23T07:08:14.948Z,171.93
2022-12-23T07:09:17.837Z,161.90
2022-12-23T07:10:20.874Z,163.73
2022-12-23T07:11:23.626Z,150.93
2022-12-23T07:12:26.507Z,185.23
2022-12-23T07:13:29.879Z,168.98
2022-12-23T07:14:32.697Z,172.52
2022-12-23T07:15:37.087Z,171.73
2022-12-23T07:16:39.950Z,167.70
2022-12-23T07:17:43.983Z,150.20
2022-12-23T07:18:47.252Z,173.90
2022-12-23T07:19:49.997Z,169.10
2022-12-23T07:20:53.171Z,161.55
2022-12-23T07:21:55.985Z,172.37
2022-12-23T07:22:58.824Z,178.38
2022-12-23T07:24:01.595Z,149.85
2022-12-23T07:25:04.616Z,164.62
2022-12-23T07:26:07.736Z,184.07
2022-12-23T07:27:10.434Z,196.60
2022-12-23T07:28:13.203Z,242.35
2022-12-23T07:29:16.015Z,194.32
2022-12-23T07:30:18.841Z,164.02
2022-12-23T07:31:22.085Z,149.32
2022-12-23T07:32:25.157Z,163.33
2022-12-23T07:33:27.885Z,200.65
2022-12-23T07:34:30.676Z,195.65
2022-12-23T07:35:33.919Z,196.95
2022-12-23T07:36:37.273Z,188.48
2022-12-23T07:37:40.044Z,193.23
2022-12-23T07:38:42.841Z,192.87
2022-12-23T07:39:45.905Z,174.02
2022-12-23T07:40:49.435Z,199.52
2022-12-23T07:42:03.831Z,185.52
2022-12-23T07:43:15.587Z,171.63
2022-12-23T07:44:18.285Z,175.77
2022-12-23T07:45:21.036Z,182.62
2022-12-23T07:46:24.045Z,184.77
2022-12-23T07:47:27.381Z,167.30
2022-12-23T07:48:30.173Z,180.23
2022-12-23T07:49:44.123Z,171.55
2022-12-23T07:51:04.938Z,182.48
2022-12-23T07:52:07.731Z,166.50
2022-12-23T07:53:12.412Z,160.40
2022-12-23T07:54:15.449Z,244.70
2022-12-23T07:55:18.533Z,205.97
2022-12-23T07:56:21.334Z,159.80
2022-12-23T07:57:24.532Z,159.80
2022-12-23T07:58:28.064Z,146.70
2022-12-23T07:59:31.309Z,198.00
2022-12-23T08:00:34.298Z,211.45
2022-12-23T08:01:37.641Z,154.10
2022-12-23T08:02:40.898Z,171.98
2022-12-23T08:03:43.946Z,186.45
2022-12-23T08:04:46.855Z,146.53
2022-12-23T08:05:59.483Z,186.45
2022-12-23T08:07:02.544Z,228.15
2022-12-23T08:08:05.344Z,170.95
2022-12-23T08:09:09.777Z,196.77
2022-12-23T08:10:13.169Z,177.75
2022-12-23T08:11:16.451Z,195.60
2022-12-23T08:12:19.495Z,245.35
2022-12-23T08:13:22.749Z,164.62
2022-12-23T08:14:25.487Z,155.27
2022-12-23T08:15:28.247Z,185.47
2022-12-23T08:16:31.377Z,194.15
2022-12-23T08:17:35.425Z,173.75
2022-12-23T08:18:40.923Z,156.55
2022-12-23T08:19:43.704Z,244.62
2022-12-23T08:21:00.352Z,208.82
2022-12-23T08:22:03.837Z,207.32
2022-12-23T08:23:06.847Z,228.52
2022-12-23T08:24:10.012Z,188.18
2022-12-23T08:25:12.787Z,170.93
2022-12-23T08:26:24.467Z,213.23
2022-12-23T08:27:27.471Z,199.93
2022-12-23T08:28:32.320Z,169.18
2022-12-23T08:29:36.631Z,173.90
2022-12-23T08:30:39.497Z,289.05
2022-12-23T08:31:42.330Z,233.10
2022-12-23T08:32:45.230Z,166.27
2022-12-23T08:33:51.992Z,195.20
2022-12-23T08:34:57.485Z,202.38
2022-12-23T08:36:00.259Z,179.02
2022-12-23T08:37:03.106Z,221.37
2022-12-23T08:38:05.859Z,237.90
2022-12-23T08:39:11.021Z,193.45
2022-12-23T08:40:13.800Z,246.40
2022-12-23T08:41:21.993Z,297.25
2022-12-23T08:42:25.463Z,277.98
2022-12-23T08:43:33.775Z,236.73
2022-12-23T08:44:38.953Z,209.20
2022-12-23T08:45:41.678Z,202.80
2022-12-23T08:46:44.932Z,303.67
2022-12-23T08:47:47.795Z,218.93
2022-12-23T08:48:51.077Z,298.20
2022-12-23T08:49:54.671Z,236.93
2022-12-23T08:50:57.418Z,213.18
2022-12-23T08:52:00.255Z,225.82
2022-12-23T08:53:03.030Z,247.18
2022-12-23T08:54:06.587Z,221.85
2022-12-23T08:55:09.682Z,180.52
2022-12-23T08:56:18.313Z,182.43
2022-12-23T08:57:21.072Z,187.60
2022-12-23T08:58:24.012Z,203.60
2022-12-23T08:59:26.749Z,241.80
2022-12-23T09:00:29.995Z,260.80
2022-12-23T09:01:34.329Z,211.75
2022-12-23T09:02:37.308Z,232.77
2022-12-23T09:03:41.331Z,218.07
2022-12-23T09:04:44.523Z,873.10
2022-12-23T09:05:47.559Z,287.35
2022-12-23T09:06:50.413Z,235.65
2022-12-23T09:07:53.249Z,199.35
2022-12-23T09:08:56.526Z,252.47
2022-12-23T09:09:59.371Z,316.60
2022-12-23T09:11:04.117Z,235.13
2022-12-23T09:12:07.044Z,232.37
2022-12-23T09:13:14.938Z,201.52
2022-12-23T09:14:20.769Z,238.90
2022-12-23T09:15:23.511Z,221.95
2022-12-23T09:16:28.635Z,173.05
2022-12-23T09:17:31.523Z,191.23
2022-12-23T09:18:35.616Z,816.90
2022-12-23T09:19:38.460Z,787.63
2022-12-23T09:20:41.198Z,566.53
2022-12-23T09:21:44.393Z,391.02
2022-12-23T09:22:47.251Z,326.42
2022-12-23T09:23:51.591Z,532.28
2022-12-23T09:24:58.664Z,341.48
2022-12-23T09:26:07.633Z,421.17
2022-12-23T09:27:10.897Z,359.33
2022-12-23T09:28:16.994Z,553.55
2022-12-23T09:29:19.897Z,787.17
2022-12-23T09:30:22.677Z,575.10
2022-12-23T09:31:32.306Z,238.77
2022-12-23T09:32:37.422Z,354.00
2022-12-23T09:33:40.422Z,198.18
2022-12-23T09:34:43.571Z,184.98
2022-12-23T09:35:46.537Z,178.98
2022-12-23T09:36:55.139Z,158.50
2022-12-23T09:37:58.627Z,271.02
2022-12-23T09:39:01.440Z,398.70
2022-12-23T09:40:05.079Z,457.95
2022-12-23T09:41:35.130Z,313.80
2022-12-23T09:42:44.400Z,164.83
2022-12-23T09:44:18.051Z,194.68
2022-12-23T09:45:56.114Z,269.98
2022-12-23T09:47:03.279Z,537.45
2022-12-23T09:48:13.757Z,267.65
2022-12-23T09:49:18.806Z,225.62
2022-12-23T09:50:29.390Z,236.50
2022-12-23T09:51:33.492Z,510.63
2022-12-23T09:52:52.847Z,307.40
2022-12-23T09:54:22.314Z,522.83
2022-12-23T09:55:37.475Z,214.15
2022-12-23T09:56:48.691Z,510.85
2022-12-23T09:58:08.887Z,554.50
2022-12-23T09:59:22.735Z,351.40
2022-12-23T10:00:29.703Z,445.40
2022-12-23T10:01:40.118Z,281.10
2022-12-23T10:03:22.583Z,252.80
2022-12-23T10:04:32.824Z,247.30
2022-12-23T10:06:14.404Z,256.80
2022-12-23T10:07:24.450Z,270.23
2022-12-23T10:08:45.050Z,407.53
2022-12-23T10:09:57.380Z,269.25
2022-12-23T10:11:14.647Z,382.27
2022-12-23T10:12:39.407Z,517.22
2022-12-23T10:14:00.304Z,310.92
2022-12-23T10:15:18.402Z,267.42
2022-12-23T10:16:26.509Z,317.65
2022-12-23T10:17:36.848Z,242.32
2022-12-23T10:19:03.997Z,319.60
2022-12-23T10:20:14.655Z,217.53
2022-12-23T10:21:47.152Z,301.70
2022-12-23T10:22:51.680Z,379.98
2022-12-23T10:23:55.097Z,576.53
2022-12-23T10:25:01.118Z,251.12
2022-12-23T10:26:11.950Z,223.38
2022-12-23T10:27:29.281Z,189.05
2022-12-23T10:28:34.111Z,344.17
2022-12-23T10:29:37.750Z,267.23
2022-12-23T10:32:11.847Z,204.83
2022-12-23T10:33:22.615Z,205.80
2022-12-23T10:34:54.465Z,226.35
2022-12-23T10:36:22.962Z,208.32
2022-12-23T10:37:35.857Z,188.48
2022-12-23T10:39:00.420Z,253.40
2022-12-23T10:40:26.562Z,301.27
2022-12-23T10:41:49.122Z,163.77
2022-12-23T10:43:30.493Z,209.40
2022-12-23T10:44:39.113Z,191.15
2022-12-23T10:45:56.871Z,185.20
2022-12-23T10:47:34.521Z,204.70
2022-12-23T10:48:58.613Z,176.15
2022-12-23T10:50:38.210Z,170.20
2022-12-23T10:52:24.917Z,150.30
2022-12-23T10:53:55.503Z,180.37
2022-12-23T10:54:58.266Z,206.32
2022-12-23T10:56:02.829Z,208.35
2022-12-23T10:57:07.253Z,177.85
2022-12-23T10:58:18.515Z,266.25
2022-12-23T10:59:26.395Z,265.77
2022-12-23T11:00:30.293Z,283.53
2022-12-23T11:01:34.755Z,178.95
2022-12-23T11:02:58.448Z,164.90
2022-12-23T11:04:09.103Z,199.82
2022-12-23T11:05:22.545Z,234.43
2022-12-23T11:06:33.156Z,174.45
2022-12-23T11:07:45.204Z,182.88
2022-12-23T11:08:50.707Z,177.68
2022-12-23T11:10:03.430Z,262.70
2022-12-23T11:11:07.324Z,186.43
2022-12-23T11:12:11.982Z,222.57
2022-12-23T11:13:45.724Z,215.07
2022-12-23T11:14:57.817Z,166.12
2022-12-23T11:16:13.954Z,200.25
2022-12-23T11:17:25.707Z,158.70
2022-12-23T11:18:37.433Z,178.40
2022-12-23T11:19:43.234Z,182.40
2022-12-23T11:21:02.632Z,165.32
2022-12-23T11:22:05.389Z,205.95
2022-12-23T11:23:29.905Z,170.33
2022-12-23T11:24:38.061Z,236.30
2022-12-23T11:25:45.813Z,193.77
2022-12-23T11:26:58.619Z,244.27
2022-12-23T11:28:10.879Z,181.95
2022-12-23T11:29:23.632Z,225.52
2022-12-23T11:30:28.450Z,192.48
2022-12-23T11:31:35.532Z,195.10
2022-12-23T11:32:39.536Z,201.37
2022-12-23T11:33:52.169Z,155.60
2022-12-23T11:34:56.216Z,208.47
2022-12-23T11:36:07.768Z,211.23
2022-12-23T11:37:24.921Z,200.18
2022-12-23T11:38:27.900Z,179.55
2022-12-23T11:39:36.979Z,183.12
2022-12-23T11:40:50.761Z,192.80
2022-12-23T11:42:09.202Z,207.73
2022-12-23T11:43:15.976Z,185.30
2022-12-23T11:44:22.347Z,183.60
2022-12-23T11:45:29.312Z,180.35
2022-12-23T11:46:35.092Z,204.90
2022-12-23T11:47:41.168Z,249.07
2022-12-23T11:48:54.339Z,186.90
2022-12-23T11:50:03.958Z,138.57
2022-12-23T11:51:07.252Z,153.20
2022-12-23T11:52:17.143Z,172.93
2022-12-23T11:53:23.571Z,192.77
2022-12-23T11:54:26.542Z,222.60
2022-12-23T11:55:34.346Z,174.07
2022-12-23T11:56:40.033Z,152.32
2022-12-23T11:57:49.303Z,156.60
2022-12-23T11:59:18.846Z,152.47
2022-12-23T12:00:26.442Z,197.90
2022-12-23T12:01:29.601Z,194.73
2022-12-23T12:02:45.170Z,181.80
2022-12-23T12:03:54.136Z,181.60
2022-12-23T12:05:05.006Z,158.35
2022-12-23T12:06:16.549Z,196.93
2022-12-23T12:07:27.428Z,222.50
2022-12-23T12:08:37.612Z,211.15
2022-12-23T12:09:43.634Z,190.23
2022-12-23T12:10:46.668Z,182.00
2022-12-23T12:12:04.476Z,201.75
2022-12-23T12:13:28.191Z,170.30
2022-12-23T12:14:51.079Z,222.35
2022-12-23T12:16:21.768Z,211.98
2022-12-23T12:17:45.823Z,184.52
2022-12-23T12:18:56.145Z,207.30
2022-12-23T12:20:10.178Z,204.20
2022-12-23T12:21:21.071Z,230.52
2022-12-23T12:22:30.455Z,239.93
2022-12-23T12:24:17.070Z,196.93
2022-12-23T12:25:23.565Z,283.35
2022-12-23T12:26:29.835Z,262.77
2022-12-23T12:27:37.612Z,292.48
2022-12-23T12:28:44.322Z,233.93
2022-12-23T12:30:12.693Z,220.80
2022-12-23T12:31:33.659Z,282.17
2022-12-23T12:32:58.417Z,253.35
2022-12-23T12:34:20.396Z,195.75
2022-12-23T12:35:38.064Z,247.60
2022-12-23T12:36:53.043Z,289.43
2022-12-23T12:38:16.440Z,223.40
2022-12-23T12:39:41.336Z,352.25
2022-12-23T12:40:56.179Z,320.23
2022-12-23T12:42:29.521Z,283.05
2022-12-23T12:43:35.286Z,207.90
2022-12-23T12:44:43.585Z,417.12
2022-12-23T12:45:58.890Z,336.15
2022-12-23T12:47:52.156Z,198.07
2022-12-23T12:49:10.942Z,181.10
2022-12-23T12:50:29.443Z,178.73
2022-12-23T12:52:25.615Z,182.05
2022-12-23T12:53:33.926Z,168.52
2022-12-23T12:54:47.988Z,174.98
2022-12-23T12:56:00.548Z,202.20
2022-12-23T12:57:04.226Z,183.98
2022-12-23T12:58:18.940Z,209.05
2022-12-23T12:59:29.669Z,173.85
2022-12-23T13:00:51.183Z,183.75
2022-12-23T13:02:15.150Z,163.60
2022-12-23T13:03:28.288Z,174.40
2022-12-23T13:05:03.244Z,179.38
2022-12-23T13:06:27.381Z,170.32
2022-12-23T13:08:05.525Z,217.00
2022-12-23T13:09:36.903Z,187.40
2022-12-23T13:10:49.833Z,180.65
2022-12-23T13:11:52.551Z,222.25
2022-12-23T13:13:28.936Z,266.55
2022-12-23T13:14:34.029Z,175.18
2022-12-23T13:16:14.591Z,197.43
2022-12-23T13:17:22.600Z,181.53
2022-12-23T13:18:35.253Z,205.93
2022-12-23T13:19:54.946Z,241.95
2022-12-23T13:21:25.371Z,211.60
2022-12-23T13:22:32.773Z,213.15
2022-12-23T13:23:44.590Z,232.30
2022-12-23T13:25:06.027Z,246.77
2022-12-23T13:26:20.055Z,224.35
2022-12-23T13:27:26.806Z,217.00
2022-12-23T13:28:41.912Z,197.27
2022-12-23T13:30:20.455Z,229.70
2022-12-23T13:32:07.847Z,192.82
2022-12-23T13:33:50.206Z,269.27
2022-12-23T13:35:15.789Z,252.62
2022-12-23T13:36:29.305Z,267.45
2022-12-23T13:40:28.640Z,245.23
2022-12-23T13:41:50.747Z,250.50
2022-12-23T13:43:02.525Z,245.40
2022-12-23T13:44:11.047Z,200.63
2022-12-23T13:45:23.772Z,278.70
2022-12-23T13:46:41.615Z,306.00
2022-12-23T13:48:13.460Z,257.55
2022-12-23T13:49:37.664Z,218.80
2022-12-23T13:50:43.552Z,250.75
2022-12-23T13:51:55.487Z,313.48
2022-12-23T13:53:33.105Z,294.33
2022-12-23T13:55:02.739Z,365.42
2022-12-23T13:56:27.118Z,299.37
2022-12-23T13:57:44.015Z,281.00
2022-12-23T13:58:50.834Z,353.15
2022-12-23T14:00:23.439Z,384.58
2022-12-23T14:01:53.974Z,348.90
2022-12-23T14:03:00.255Z,362.77
2022-12-23T14:04:29.751Z,304.55
2022-12-23T14:05:35.318Z,285.05
2022-12-23T14:06:40.870Z,303.48
2022-12-23T14:07:45.212Z,398.95
2022-12-23T14:08:56.874Z,369.23
2022-12-23T14:10:12.771Z,292.65
2022-12-23T14:11:27.932Z,384.52
2022-12-23T14:12:37.149Z,283.58
2022-12-23T14:13:46.581Z,259.98
2022-12-23T14:15:31.083Z,296.40
2022-12-23T14:17:07.735Z,426.30
2022-12-23T14:18:36.471Z,338.55
2022-12-23T14:19:42.742Z,366.92
2022-12-23T14:21:23.023Z,331.65
2022-12-23T14:22:37.757Z,339.83
2022-12-23T14:23:40.714Z,355.73
2022-12-23T14:24:51.163Z,295.85
2022-12-23T14:26:15.239Z,366.83
2022-12-23T14:27:46.998Z,337.55
2022-12-23T14:29:23.411Z,355.73
2022-12-23T14:30:42.649Z,371.83
2022-12-23T14:31:58.367Z,359.45
2022-12-23T14:33:15.494Z,425.48
2022-12-23T14:34:19.436Z,360.65
2022-12-23T14:35:40.307Z,477.00
2022-12-23T14:37:25.830Z,438.23
2022-12-23T14:38:32.954Z,357.50
2022-12-23T14:39:36.429Z,404.83
2022-12-23T14:40:39.346Z,348.02
2022-12-23T14:41:53.395Z,386.25
2022-12-23T14:43:22.160Z,382.83
2022-12-23T14:44:37.174Z,465.88
2022-12-23T14:45:43.730Z,446.58
2022-12-23T14:46:46.708Z,319.05
2022-12-23T14:47:51.581Z,374.40
2022-12-23T14:49:29.852Z,364.43